Time;durP1;ratioP1;P1;durP2;ratioP2;P2;SDS_P1;SDS_P2;PMS_P1;PMS_P2;Temp;Humidity;BMP_temperature;BMP_pressure;BME280_temperature;BME280_humidity;BME280_pressure;Samples;Min_cycle;Max_cycle;Signal;HPM_P1;HPM_P2
2024/02/26 00:02:09;;;;;;;;;;;7.70;99.90;;;-146.41;100.00;57768.22;5037350;28;1468;-64
2024/02/26 00:04:36;;;;;;;;;;;7.60;99.90;;;-146.41;100.00;57768.22;5042186;28;1808;-66
2024/02/26 00:07:03;;;;;;;;;;;7.50;99.90;;;-146.41;100.00;57768.22;5037987;28;3875;-67
2024/02/26 00:09:30;;;;;;;;;;;7.40;99.90;;;-146.41;100.00;57768.22;5042169;28;1933;-67
2024/02/26 00:11:57;;;;;;;;;;;7.40;99.90;;;-146.41;100.00;57768.22;5042435;28;1749;-67
2024/02/26 00:14:24;;;;;;;;;;;7.40;99.90;;;-146.41;100.00;57768.22;5042403;28;1570;-68
2024/02/26 00:16:51;;;;;;;;;;;7.40;99.90;;;-146.41;100.00;57768.22;5042017;28;2047;-67
2024/02/26 00:19:18;;;;;;;;;;;7.30;99.90;;;-146.41;100.00;57768.22;5055859;28;2614;-67
2024/02/26 00:21:45;;;;;;;;;;;7.30;99.90;;;-146.41;100.00;57768.22;5038257;28;1445;-68
2024/02/26 00:24:12;;;;;;;;;;;7.20;99.90;;;-146.41;100.00;57768.22;5041125;28;1456;-67
2024/02/26 00:26:39;;;;;;;;;;;7.10;99.90;;;-146.41;100.00;57768.22;5041255;28;1670;-67
2024/02/26 00:29:05;;;;;;;;;;;7.10;99.90;;;-146.41;100.00;57768.22;5037111;28;1939;-67
2024/02/26 00:31:32;;;;;;;;;;;7.10;99.90;;;-146.41;100.00;57768.22;5039925;28;1400;-67
2024/02/26 00:33:59;;;;;;;;;;;7.10;99.90;;;-146.41;100.00;57768.22;5043211;28;2552;-67
2024/02/26 00:36:26;;;;;;;;;;;7.00;99.90;;;-146.41;100.00;57768.22;5039342;28;1468;-67
2024/02/26 00:38:53;;;;;;;;;;;7.00;99.90;;;-146.41;100.00;57768.22;5043511;28;1526;-67
2024/02/26 00:41:20;;;;;;;;;;;7.00;99.90;;;-146.41;100.00;57768.22;5041359;28;1509;-67
2024/02/26 00:43:47;;;;;;;;;;;7.00;99.90;;;-146.41;100.00;57768.22;5039806;28;1472;-67
2024/02/26 00:46:13;;;;;;;;;;;7.00;99.90;;;-146.41;100.00;57768.22;5042052;28;1451;-67
2024/02/26 00:48:40;;;;;;;;;;;7.00;99.90;;;-146.41;100.00;57768.22;5038981;28;3107;-67
2024/02/26 00:51:07;;;;;;;;;;;6.80;99.90;;;-146.41;100.00;57768.22;5054982;28;1898;-66
2024/02/26 00:53:34;;;;;;;;;;;6.70;99.90;;;-146.41;100.00;57768.22;5039783;28;1586;-67
2024/02/26 00:56:01;;;;;;;;;;;6.60;99.90;;;-146.41;100.00;57768.22;5040864;28;1443;-67
2024/02/26 00:58:28;;;;;;;;;;;6.60;99.90;;;-146.41;100.00;57768.22;5034158;28;1964;-67
2024/02/26 01:00:55;;;;;;;;;;;6.60;99.90;;;-146.41;100.00;57768.22;5039032;28;1461;-67
2024/02/26 01:03:22;;;;;;;;;;;6.50;99.90;;;-146.41;100.00;57768.22;5055084;28;2560;-67
2024/02/26 01:05:49;;;;;;;;;;;6.50;99.90;;;-146.41;100.00;57768.22;5040809;28;2024;-67
2024/02/26 01:08:16;;;;;;;;;;;6.40;99.90;;;-146.41;100.00;57768.22;5039242;28;1511;-67
2024/02/26 01:10:43;;;;;;;;;;;6.30;99.90;;;-146.41;100.00;57768.22;5037294;28;1981;-67
2024/02/26 01:13:10;;;;;;;;;;;6.30;99.90;;;-146.41;100.00;57768.22;5042881;28;1580;-67
2024/02/26 01:15:37;;;;;;;;;;;6.30;99.90;;;-146.41;100.00;57768.22;5040368;28;1329;-67
2024/02/26 01:18:03;;;;;;;;;;;6.20;99.90;;;-146.41;100.00;57768.22;5036385;28;2491;-67
2024/02/26 01:20:30;;;;;;;;;;;6.30;99.90;;;-146.41;100.00;57768.22;5038194;28;1367;-67
2024/02/26 01:22:57;;;;;;;;;;;6.20;99.90;;;-146.41;100.00;57768.22;5033207;28;1445;-67
2024/02/26 01:25:24;;;;;;;;;;;6.30;99.90;;;-146.41;100.00;57768.22;5037268;28;1326;-68
2024/02/26 01:27:51;;;;;;;;;;;6.20;99.90;;;-146.41;100.00;57768.22;5040610;28;1425;-67
2024/02/26 01:30:18;;;;;;;;;;;6.20;99.90;;;-146.41;100.00;57768.22;5038894;28;2021;-67
2024/02/26 01:32:45;;;;;;;;;;;6.10;99.90;;;-146.41;100.00;57768.22;5043792;28;3408;-67
2024/02/26 01:35:12;;;;;;;;;;;6.10;99.90;;;-146.41;100.00;57768.22;5038527;28;1468;-67
2024/02/26 01:37:39;;;;;;;;;;;6.00;99.90;;;-146.41;100.00;57768.22;5036403;28;1346;-67
2024/02/26 01:40:06;;;;;;;;;;;6.00;99.90;;;-146.41;100.00;57768.22;5038990;28;1367;-67
2024/02/26 01:42:33;;;;;;;;;;;6.10;99.90;;;-146.41;100.00;57768.22;5042598;28;1311;-67
2024/02/26 01:45:01;;;;;;;;;;;6.10;99.90;;;-146.41;100.00;57768.22;5038097;28;1485;-67
2024/02/26 01:47:28;;;;;;;;;;;6.00;99.90;;;-146.41;100.00;57768.22;5038860;28;2478;-67
2024/02/26 01:49:55;;;;;;;;;;;5.90;99.90;;;-146.41;100.00;57768.22;5038136;28;2468;-67
2024/02/26 01:52:22;;;;;;;;;;;5.90;99.90;;;-146.41;100.00;57768.22;5037514;28;2570;-67
2024/02/26 01:54:50;;;;;;;;;;;5.90;99.90;;;-146.41;100.00;57768.22;5034470;28;1481;-67
2024/02/26 01:57:17;;;;;;;;;;;5.90;99.90;;;-146.41;100.00;57768.22;5043012;28;1672;-68
2024/02/26 01:59:44;;;;;;;;;;;5.90;99.90;;;-146.41;100.00;57768.22;5054907;28;1681;-68
2024/02/26 02:02:11;;;;;;;;;;;5.90;99.90;;;-146.41;100.00;57768.22;5052708;28;1622;-67
2024/02/26 02:04:39;;;;;;;;;;;5.90;99.90;;;-146.41;100.00;57768.22;5050139;28;2081;-66
2024/02/26 02:07:06;;;;;;;;;;;5.90;99.90;;;-146.41;100.00;57768.22;5041168;28;1497;-67
2024/02/26 02:09:33;;;;;;;;;;;5.80;99.90;;;-146.41;100.00;57768.22;5039842;28;1903;-67
2024/02/26 02:12:00;;;;;;;;;;;5.80;99.90;;;-146.41;100.00;57768.22;5038854;28;1669;-67
2024/02/26 02:14:27;;;;;;;;;;;5.80;99.90;;;-146.41;100.00;57768.22;5052998;28;1231;-67
2024/02/26 02:16:54;;;;;;;;;;;5.70;99.90;;;-146.41;100.00;57768.22;5053686;28;3201;-67
2024/02/26 02:19:20;;;;;;;;;;;5.70;99.90;;;-146.41;100.00;57768.22;5037710;28;1227;-66
2024/02/26 02:21:47;;;;;;;;;;;5.70;99.90;;;-146.41;100.00;57768.22;5039468;28;1604;-67
2024/02/26 02:24:14;;;;;;;;;;;5.70;99.90;;;-146.41;100.00;57768.22;5036551;28;1236;-67
2024/02/26 02:26:41;;;;;;;;;;;5.60;99.90;;;-146.41;100.00;57768.22;5037750;28;1311;-67
2024/02/26 02:29:09;;;;;;;;;;;5.60;99.90;;;-146.41;100.00;57768.22;5036846;28;1988;-68
2024/02/26 02:31:36;;;;;;;;;;;5.50;99.90;;;-146.41;100.00;57768.22;5037037;28;2531;-67
2024/02/26 02:34:03;;;;;;;;;;;5.40;99.90;;;-146.41;100.00;57768.22;5051438;28;2636;-67
2024/02/26 02:36:30;;;;;;;;;;;5.40;99.90;;;-146.41;100.00;57768.22;5040909;28;1675;-67
2024/02/26 02:38:57;;;;;;;;;;;5.40;99.90;;;-146.41;100.00;57768.22;5035491;28;1398;-67
2024/02/26 02:41:24;;;;;;;;;;;5.30;99.90;;;-146.41;100.00;57768.22;5035960;28;1355;-67
2024/02/26 02:43:51;;;;;;;;;;;5.30;99.90;;;-146.41;100.00;57768.22;5036354;28;1349;-67
2024/02/26 02:46:18;;;;;;;;;;;5.30;99.90;;;-146.41;100.00;57768.22;5040089;28;1425;-67
2024/02/26 02:48:45;;;;;;;;;;;5.20;99.90;;;-146.41;100.00;57768.22;5037707;28;1952;-67
2024/02/26 02:51:12;;;;;;;;;;;5.20;99.90;;;-146.41;100.00;57768.22;5035723;28;1918;-67
2024/02/26 02:53:38;;;;;;;;;;;5.20;99.90;;;-146.41;100.00;57768.22;5041531;28;1668;-67
2024/02/26 02:56:06;;;;;;;;;;;5.10;99.90;;;-146.41;100.00;57768.22;5055439;28;1319;-67
2024/02/26 02:58:32;;;;;;;;;;;5.10;99.90;;;-146.41;100.00;57768.22;5039069;28;1313;-67
2024/02/26 03:01:00;;;;;;;;;;;5.10;99.90;;;-146.41;100.00;57768.22;5040074;28;1422;-67
2024/02/26 03:03:28;;;;;;;;;;;5.10;99.90;;;-146.41;100.00;57768.22;5039543;28;3291;-67
2024/02/26 03:05:56;;;;;;;;;;;5.00;99.90;;;-146.41;100.00;57768.22;5040165;28;1460;-67
2024/02/26 03:08:25;;;;;;;;;;;5.00;99.90;;;-146.41;100.00;57768.22;5044032;28;1145;-67
2024/02/26 03:10:52;;;;;;;;;;;5.00;99.90;;;-146.41;100.00;57768.22;5042266;28;1977;-67
2024/02/26 03:13:19;;;;;;;;;;;5.00;99.90;;;-146.41;100.00;57768.22;5042029;28;1368;-67
2024/02/26 03:15:46;;;;;;;;;;;5.10;99.90;;;-146.41;100.00;57768.22;5038830;28;1314;-67
2024/02/26 03:18:13;;;;;;;;;;;5.10;99.90;;;-146.41;100.00;57768.22;5040506;28;1983;-67
2024/02/26 03:20:40;;;;;;;;;;;5.10;99.90;;;-146.41;100.00;57768.22;5037511;28;1460;-67
2024/02/26 03:23:09;;;;;;;;;;;5.10;99.90;;;-146.41;100.00;57768.22;5040147;28;1216;-67
2024/02/26 03:25:36;;;;;;;;;;;5.10;99.90;;;-146.41;100.00;57768.22;5041165;28;1304;-67
2024/02/26 03:28:03;;;;;;;;;;;5.10;99.90;;;-146.41;100.00;57768.22;5038683;28;1275;-67
2024/02/26 03:30:30;;;;;;;;;;;5.20;99.90;;;-146.41;100.00;57768.22;5041354;28;1906;-67
2024/02/26 03:32:57;;;;;;;;;;;5.10;99.90;;;-146.41;100.00;57768.22;5038269;28;2494;-67
2024/02/26 03:35:24;;;;;;;;;;;5.10;99.90;;;-146.41;100.00;57768.22;5039832;28;1492;-67
2024/02/26 03:37:51;;;;;;;;;;;5.10;99.90;;;-146.41;100.00;57768.22;5058748;28;1045;-67
2024/02/26 03:40:19;;;;;;;;;;;5.00;99.90;;;-146.41;100.00;57768.22;5039896;28;1323;-67
2024/02/26 03:42:46;;;;;;;;;;;5.20;99.90;;;-146.41;100.00;57768.22;5040208;28;1207;-67
2024/02/26 03:45:13;;;;;;;;;;;5.10;99.90;;;-146.41;100.00;57768.22;5040252;28;1290;-67
2024/02/26 03:47:40;;;;;;;;;;;5.20;99.90;;;-146.41;100.00;57768.22;5036658;28;3146;-67
2024/02/26 03:50:07;;;;;;;;;;;5.20;99.90;;;-146.41;100.00;57768.22;5041860;28;1991;-67
2024/02/26 03:52:34;;;;;;;;;;;5.10;99.90;;;-146.41;100.00;57768.22;5040206;28;1215;-67
2024/02/26 03:55:01;;;;;;;;;;;5.10;99.90;;;-146.41;100.00;57768.22;5036981;28;1353;-67
2024/02/26 03:57:28;;;;;;;;;;;5.20;99.90;;;-146.41;100.00;57768.22;5037399;28;1038;-67
2024/02/26 03:59:54;;;;;;;;;;;5.10;99.90;;;-146.41;100.00;57768.22;5045483;28;1316;-67
2024/02/26 04:02:22;;;;;;;;;;;5.10;99.90;;;-146.41;100.00;57768.22;5040635;28;2348;-68
2024/02/26 04:04:49;;;;;;;;;;;5.10;99.90;;;-146.41;100.00;57768.22;5036118;28;2424;-67
2024/02/26 04:07:16;;;;;;;;;;;5.20;99.90;;;-146.41;100.00;57768.22;5035915;28;1092;-67
2024/02/26 04:09:44;;;;;;;;;;;5.20;99.90;;;-146.41;100.00;57768.22;5041983;28;1674;-67
2024/02/26 04:12:11;;;;;;;;;;;5.30;99.90;;;-146.41;100.00;57768.22;5042482;28;1879;-67
2024/02/26 04:14:38;;;;;;;;;;;5.30;99.90;;;-146.41;100.00;57768.22;5040423;28;1179;-67
2024/02/26 04:17:04;;;;;;;;;;;5.40;99.90;;;-146.41;100.00;57768.22;5041343;28;2065;-67
2024/02/26 04:19:31;;;;;;;;;;;5.30;99.90;;;-146.41;100.00;57768.22;5038702;28;1400;-67
2024/02/26 04:21:59;;;;;;;;;;;5.40;99.90;;;-146.41;100.00;57768.22;5036043;28;1311;-67
2024/02/26 04:24:26;;;;;;;;;;;5.50;99.90;;;-146.41;100.00;57768.22;5039521;28;1311;-67
2024/02/26 04:26:52;;;;;;;;;;;5.50;99.90;;;-146.41;100.00;57768.22;5043583;28;1409;-67
2024/02/26 04:29:41;;;;;;;;;;;5.50;99.90;;;-146.41;100.00;57768.22;5039917;28;3188;-67
2024/02/26 04:32:07;;;;;;;;;;;5.60;99.90;;;-146.41;100.00;57768.22;5039153;28;2627;-67
2024/02/26 04:34:34;;;;;;;;;;;5.60;99.90;;;-146.41;100.00;57768.22;5043540;28;1461;-67
2024/02/26 04:37:01;;;;;;;;;;;5.50;99.90;;;-146.41;100.00;57768.22;5036539;28;1425;-68
2024/02/26 04:39:28;;;;;;;;;;;5.60;99.90;;;-146.41;100.00;57768.22;5043490;28;1294;-67
2024/02/26 04:41:55;;;;;;;;;;;5.50;99.90;;;-146.41;100.00;57768.22;5039725;28;1359;-68
2024/02/26 04:44:22;;;;;;;;;;;5.60;99.90;;;-146.41;100.00;57768.22;5038148;28;1927;-67
2024/02/26 04:46:49;;;;;;;;;;;5.60;99.90;;;-146.41;100.00;57768.22;5042181;28;1291;-67
2024/02/26 04:49:15;;;;;;;;;;;5.70;99.90;;;-146.41;100.00;57768.22;5037543;28;2439;-68
2024/02/26 04:51:42;;;;;;;;;;;5.70;99.90;;;-146.41;100.00;57768.22;5039347;28;2001;-67
2024/02/26 04:54:09;;;;;;;;;;;5.70;99.90;;;-146.41;100.00;57768.22;5040614;28;1330;-68
2024/02/26 04:56:36;;;;;;;;;;;5.70;99.90;;;-146.41;100.00;57768.22;5035172;28;1291;-68
2024/02/26 04:59:03;;;;;;;;;;;5.70;99.90;;;-146.41;100.00;57768.22;5036750;28;1167;-68
2024/02/26 05:01:30;;;;;;;;;;;5.70;99.90;;;-146.41;100.00;57768.22;5043618;28;2161;-68
2024/02/26 05:03:57;;;;;;;;;;;5.70;99.90;;;-146.41;100.00;57768.22;5038655;28;2437;-68
2024/02/26 05:06:24;;;;;;;;;;;5.70;99.90;;;-146.41;100.00;57768.22;5039818;28;3731;-67
2024/02/26 05:08:51;;;;;;;;;;;5.60;99.90;;;-146.41;100.00;57768.22;5040626;28;1259;-67
2024/02/26 05:11:18;;;;;;;;;;;5.60;99.90;;;-146.41;100.00;57768.22;5040212;28;1946;-68
2024/02/26 05:13:45;;;;;;;;;;;5.70;99.90;;;-146.41;100.00;57768.22;5038755;28;1159;-68
2024/02/26 05:16:12;;;;;;;;;;;5.70;99.90;;;-146.41;100.00;57768.22;5041308;28;1387;-68
2024/02/26 05:18:39;;;;;;;;;;;5.70;99.90;;;-146.41;100.00;57768.22;5038194;28;2023;-68
2024/02/26 05:21:06;;;;;;;;;;;5.70;99.90;;;-146.41;100.00;57768.22;5039504;28;1690;-68
2024/02/26 05:23:33;;;;;;;;;;;5.70;99.90;;;-146.41;100.00;57768.22;5036772;28;1448;-68
2024/02/26 05:25:59;;;;;;;;;;;5.70;99.90;;;-146.41;100.00;57768.22;5041918;28;1299;-68
2024/02/26 05:28:26;;;;;;;;;;;5.70;99.90;;;-146.41;100.00;57768.22;5038434;28;1885;-68
2024/02/26 05:30:53;;;;;;;;;;;5.70;99.90;;;-146.41;100.00;57768.22;5040978;28;1910;-66
2024/02/26 05:33:20;;;;;;;;;;;5.80;99.90;;;-146.41;100.00;57768.22;5040264;28;2003;-68
2024/02/26 05:35:47;;;;;;;;;;;5.80;99.90;;;-146.41;100.00;57768.22;5042059;28;1420;-68
2024/02/26 05:38:13;;;;;;;;;;;5.80;99.90;;;-146.41;100.00;57768.22;5039679;28;1322;-68
2024/02/26 05:40:40;;;;;;;;;;;5.80;99.90;;;-146.41;100.00;57768.22;5043376;28;1418;-68
2024/02/26 05:43:07;;;;;;;;;;;5.80;99.90;;;-146.41;100.00;57768.22;5041054;28;1314;-68
2024/02/26 05:45:34;;;;;;;;;;;5.80;99.90;;;-146.41;100.00;57768.22;5038890;28;1285;-68
2024/02/26 05:48:01;;;;;;;;;;;5.80;99.90;;;-146.41;100.00;57768.22;5040612;28;3478;-68
2024/02/26 05:50:28;;;;;;;;;;;5.80;99.90;;;-146.41;100.00;57768.22;5037010;28;1395;-68
2024/02/26 05:52:54;;;;;;;;;;;5.80;99.90;;;-146.41;100.00;57768.22;5038244;28;1290;-68
2024/02/26 05:55:21;;;;;;;;;;;5.80;99.90;;;-146.41;100.00;57768.22;5039597;28;1362;-67
2024/02/26 05:57:49;;;;;;;;;;;5.70;99.90;;;-146.41;100.00;57768.22;5039049;28;1379;-68
2024/02/26 06:00:16;;;;;;;;;;;5.70;99.90;;;-146.41;100.00;57768.22;5040004;28;1441;-68
2024/02/26 06:02:43;;;;;;;;;;;5.60;99.90;;;-146.41;100.00;57768.22;5042167;28;2444;-67
2024/02/26 06:05:10;;;;;;;;;;;5.70;99.90;;;-146.41;100.00;57768.22;5040341;28;1969;-67
2024/02/26 06:07:37;;;;;;;;;;;5.60;99.90;;;-146.41;100.00;57768.22;5037623;28;1454;-67
2024/02/26 06:10:04;;;;;;;;;;;5.60;99.90;;;-146.41;100.00;57768.22;5040557;28;1481;-67
2024/02/26 06:12:32;;;;;;;;;;;5.60;99.90;;;-146.41;100.00;57768.22;5038070;28;2013;-67
2024/02/26 06:15:01;;;;;;;;;;;5.60;99.90;;;-146.41;100.00;57768.22;5035387;28;2702;-67
2024/02/26 06:17:28;;;;;;;;;;;5.60;99.90;;;-146.41;100.00;57768.22;5039223;28;1359;-66
2024/02/26 06:19:55;;;;;;;;;;;5.60;99.90;;;-146.41;100.00;57768.22;5035152;28;1395;-67
2024/02/26 06:22:22;;;;;;;;;;;5.60;99.90;;;-146.41;100.00;57768.22;5037247;28;1180;-68
2024/02/26 06:24:48;;;;;;;;;;;5.60;99.90;;;-146.41;100.00;57768.22;5035502;28;1332;-67
2024/02/26 06:27:15;;;;;;;;;;;5.60;99.90;;;-146.41;100.00;57768.22;5040732;28;1435;-70
2024/02/26 06:29:42;;;;;;;;;;;5.60;99.90;;;-146.41;100.00;57768.22;5039851;28;3065;-67
2024/02/26 06:32:09;;;;;;;;;;;5.60;99.90;;;-146.41;100.00;57768.22;5042065;28;2542;-67
2024/02/26 06:34:38;;;;;;;;;;;5.60;99.90;;;-146.41;100.00;57768.22;5040087;28;1476;-67
2024/02/26 06:37:05;;;;;;;;;;;5.70;99.90;;;-146.41;100.00;57768.22;5041668;28;1374;-68
2024/02/26 06:39:32;;;;;;;;;;;5.70;99.90;;;-146.41;100.00;57768.22;5036003;28;1340;-67
2024/02/26 06:42:02;;;;;;;;;;;5.70;99.90;;;-146.41;100.00;57768.22;5041630;28;1378;-68
2024/02/26 06:44:31;;;;;;;;;;;5.70;99.90;;;-146.41;100.00;57768.22;5042374;28;1410;-67
2024/02/26 06:46:59;;;;;;;;;;;5.80;99.90;;;-146.41;100.00;57768.22;5041729;28;2344;-68
2024/02/26 06:49:27;;;;;;;;;;;5.80;99.90;;;-146.41;100.00;57768.22;5041893;28;1408;-67
2024/02/26 06:51:54;;;;;;;;;;;5.80;99.90;;;-146.41;100.00;57768.22;5041425;28;1902;-67
2024/02/26 06:54:21;;;;;;;;;;;5.80;99.90;;;-146.41;100.00;57768.22;5037297;28;1316;-68
2024/02/26 06:56:48;;;;;;;;;;;5.80;99.90;;;-146.41;100.00;57768.22;5041737;28;1284;-68
2024/02/26 06:59:15;;;;;;;;;;;5.80;99.90;;;-146.41;100.00;57768.22;5039505;28;1347;-67
2024/02/26 07:01:42;;;;;;;;;;;5.90;99.90;;;-146.41;100.00;57768.22;5042557;28;2630;-66
2024/02/26 07:04:10;;;;;;;;;;;5.80;99.90;;;-146.41;100.00;57768.22;5040429;28;1455;-67
2024/02/26 07:06:37;;;;;;;;;;;5.80;99.90;;;-146.41;100.00;57768.22;5053476;28;4097;-67
2024/02/26 07:09:04;;;;;;;;;;;5.90;99.90;;;-146.41;100.00;57768.22;5042160;28;1633;-67
2024/02/26 07:11:31;;;;;;;;;;;5.80;99.90;;;-146.41;100.00;57768.22;5039893;28;1898;-67
2024/02/26 07:13:58;;;;;;;;;;;5.90;99.90;;;-146.41;100.00;57768.22;5041422;28;1332;-67
2024/02/26 07:16:26;;;;;;;;;;;5.90;99.90;;;-146.41;100.00;57768.22;5038972;28;1367;-67
2024/02/26 07:18:53;;;;;;;;;;;5.90;99.90;;;-146.41;100.00;57768.22;5042936;28;1356;-67
2024/02/26 07:21:20;;;;;;;;;;;5.90;99.90;;;-146.41;100.00;57768.22;5041047;28;1844;-66
2024/02/26 07:23:46;;;;;;;;;;;5.90;99.90;;;-146.41;100.00;57768.22;5040345;28;2964;-67
2024/02/26 07:26:13;;;;;;;;;;;6.00;99.90;;;-146.41;100.00;57768.22;5041077;28;1146;-68
2024/02/26 07:28:40;;;;;;;;;;;6.00;99.90;;;-146.41;100.00;57768.22;5040392;28;1383;-67
2024/02/26 07:31:07;;;;;;;;;;;6.00;99.90;;;-146.41;100.00;57768.22;5044907;28;1910;-67
2024/02/26 07:33:34;;;;;;;;;;;6.00;99.90;;;-146.41;100.00;57768.22;5040637;28;1363;-67
2024/02/26 07:36:01;;;;;;;;;;;6.10;99.90;;;-146.41;100.00;57768.22;5040643;28;2269;-66
2024/02/26 07:38:27;;;;;;;;;;;6.10;99.90;;;-146.41;100.00;57768.22;5035760;28;1280;-66
2024/02/26 07:41:08;;;;;;;;;;;6.10;99.90;;;-146.41;100.00;57768.22;5027620;28;1273;-67
2024/02/26 07:43:35;;;;;;;;;;;6.10;99.90;;;-146.41;100.00;57768.22;5035095;28;1430;-67
2024/02/26 07:46:02;;;;;;;;;;;6.10;99.90;;;-146.41;100.00;57768.22;5034648;28;1436;-67
2024/02/26 07:48:29;;;;;;;;;;;6.10;99.90;;;-146.41;100.00;57768.22;5036339;28;2688;-67
2024/02/26 07:50:57;;;;;;;;;;;6.10;99.90;;;-146.41;100.00;57768.22;5036193;28;1343;-67
2024/02/26 07:53:24;;;;;;;;;;;6.20;99.90;;;-146.41;100.00;57768.22;5037312;28;1971;-67
2024/02/26 07:55:51;;;;;;;;;;;6.20;99.90;;;-146.41;100.00;57768.22;5035788;28;1106;-66
2024/02/26 07:58:17;;;;;;;;;;;6.40;99.90;;;-146.41;100.00;57768.22;5033824;28;1301;-68
2024/02/26 08:00:46;;;;;;;;;;;6.30;99.90;;;-146.41;100.00;57768.22;5033976;28;1451;-67
2024/02/26 08:03:15;;;;;;;;;;;6.30;99.90;;;-146.41;100.00;57768.22;5034721;28;2158;-68
2024/02/26 08:05:43;;;;;;;;;;;6.30;99.90;;;-146.41;100.00;57768.22;5039660;28;1147;-67
2024/02/26 08:08:10;;;;;;;;;;;6.30;99.90;;;-146.41;100.00;57768.22;5036402;28;1208;-67
2024/02/26 08:10:37;;;;;;;;;;;6.40;99.90;;;-146.41;100.00;57768.22;5037242;28;1268;-68
2024/02/26 08:13:07;;;;;;;;;;;6.40;99.90;;;-146.41;100.00;57768.22;5032153;28;2094;-67
2024/02/26 08:15:37;;;;;;;;;;;6.50;99.90;;;-146.41;100.00;57768.22;5032216;28;2601;-67
2024/02/26 08:18:04;;;;;;;;;;;6.50;99.90;;;-146.41;100.00;57768.22;5034448;28;2983;-67
2024/02/26 08:20:32;;;;;;;;;;;6.60;99.90;;;-146.41;100.00;57768.22;5033099;28;1354;-67
2024/02/26 08:22:58;;;;;;;;;;;6.70;99.90;;;-146.41;100.00;57768.22;5036280;28;1601;-67
2024/02/26 08:25:25;;;;;;;;;;;6.80;99.90;;;-146.41;100.00;57768.22;5030829;28;5271;-67
2024/02/26 08:27:52;;;;;;;;;;;6.90;99.90;;;-146.41;100.00;57768.22;5032726;28;1062;-68
2024/02/26 08:30:19;;;;;;;;;;;7.00;99.90;;;-146.41;100.00;57768.22;5051917;28;1382;-67
2024/02/26 08:32:47;;;;;;;;;;;6.90;99.90;;;-146.41;100.00;57768.22;5032200;28;1906;-67
2024/02/26 08:35:18;;;;;;;;;;;7.00;99.90;;;-146.41;100.00;57768.22;5033313;28;1085;-68
2024/02/26 08:37:46;;;;;;;;;;;7.00;99.90;;;-146.41;100.00;57768.22;5034084;28;1106;-68
2024/02/26 08:40:14;;;;;;;;;;;7.20;99.90;;;-146.41;100.00;57768.22;5050724;28;1288;-68
2024/02/26 08:42:41;;;;;;;;;;;7.30;99.90;;;-146.41;100.00;57768.22;5034644;28;1374;-67
2024/02/26 08:45:08;;;;;;;;;;;7.40;99.90;;;-146.41;100.00;57768.22;5031636;28;1384;-67
2024/02/26 08:47:35;;;;;;;;;;;7.50;99.90;;;-146.41;100.00;57768.22;5016775;28;1393;-66
2024/02/26 08:50:03;;;;;;;;;;;7.60;99.90;;;-146.41;100.00;57768.22;5030705;28;1406;-67
2024/02/26 08:52:30;;;;;;;;;;;7.70;99.90;;;-146.41;100.00;57768.22;5035674;28;1969;-67
2024/02/26 08:54:57;;;;;;;;;;;7.80;99.90;;;-146.41;100.00;57768.22;5031552;28;2868;-67
2024/02/26 08:57:26;;;;;;;;;;;7.80;99.90;;;-146.41;100.00;57768.22;5033585;28;1178;-67
2024/02/26 08:59:53;;;;;;;;;;;7.80;99.90;;;-146.41;100.00;57768.22;5031523;28;1423;-67
2024/02/26 09:02:20;;;;;;;;;;;7.90;99.90;;;-146.41;100.00;57768.22;5032871;28;2514;-68
2024/02/26 09:04:47;;;;;;;;;;;8.00;99.90;;;-146.41;100.00;57768.22;5030704;28;3584;-68
2024/02/26 09:07:14;;;;;;;;;;;8.20;99.90;;;-146.41;100.00;57768.22;5033139;28;1494;-67
2024/02/26 09:09:41;;;;;;;;;;;8.10;99.90;;;-146.41;100.00;57768.22;5033483;28;2592;-68
2024/02/26 09:12:08;;;;;;;;;;;8.20;99.90;;;-146.41;100.00;57768.22;5031967;28;1914;-67
2024/02/26 09:14:35;;;;;;;;;;;8.00;99.90;;;-146.41;100.00;57768.22;5034947;28;1383;-67
2024/02/26 09:17:02;;;;;;;;;;;7.90;99.90;;;-146.41;100.00;57768.22;5034972;28;1080;-67
2024/02/26 09:19:29;;;;;;;;;;;7.80;99.90;;;-146.41;100.00;57768.22;5032562;28;1466;-66
2024/02/26 09:21:57;;;;;;;;;;;7.80;99.90;;;-146.41;100.00;57768.22;5033373;28;1316;-67
2024/02/26 09:24:26;;;;;;;;;;;7.80;99.90;;;-146.41;100.00;57768.22;5032204;28;2131;-67
2024/02/26 09:26:53;;;;;;;;;;;7.90;99.90;;;-146.41;100.00;57768.22;5032915;28;2364;-68
2024/02/26 09:29:20;;;;;;;;;;;8.10;99.90;;;-146.41;100.00;57768.22;5029810;28;1101;-68
2024/02/26 09:31:47;;;;;;;;;;;8.20;99.90;;;-146.41;100.00;57768.22;5032135;28;2037;-68
2024/02/26 09:34:14;;;;;;;;;;;8.30;99.90;;;-146.41;100.00;57768.22;5034077;28;1393;-68
2024/02/26 09:36:43;;;;;;;;;;;8.40;99.90;;;-146.41;100.00;57768.22;5034856;28;1391;-67
2024/02/26 09:39:11;;;;;;;;;;;8.40;99.90;;;-146.41;100.00;57768.22;5030834;28;1133;-68
2024/02/26 09:41:39;;;;;;;;;;;8.60;99.90;;;-146.41;100.00;57768.22;5028357;28;2466;-68
2024/02/26 09:44:06;;;;;;;;;;;8.70;99.90;;;-146.41;100.00;57768.22;5031662;28;3528;-67
2024/02/26 09:46:33;;;;;;;;;;;8.80;99.90;;;-146.41;100.00;57768.22;5033090;28;1421;-64
2024/02/26 09:49:00;;;;;;;;;;;8.80;99.90;;;-146.41;100.00;57768.22;5031464;28;1468;-67
2024/02/26 09:51:28;;;;;;;;;;;8.90;99.90;;;-146.41;100.00;57768.22;5031294;28;1414;-68
2024/02/26 09:53:56;;;;;;;;;;;8.80;99.90;;;-146.41;100.00;57768.22;5032579;28;1902;-65
2024/02/26 09:56:23;;;;;;;;;;;9.10;99.90;;;-146.41;100.00;57768.22;5023085;28;2394;-66
2024/02/26 09:58:53;;;;;;;;;;;9.40;99.90;;;-146.41;100.00;57768.22;5019154;28;1061;-67
2024/02/26 10:01:20;;;;;;;;;;;9.50;99.90;;;-146.41;100.00;57768.22;5031151;28;1490;-68
2024/02/26 10:03:55;;;;;;;;;;;9.70;99.90;;;-146.41;100.00;57768.22;5034974;28;1155;-68
2024/02/26 10:06:22;;;;;;;;;;;9.80;99.90;;;-146.41;100.00;57768.22;5032835;28;1085;-68
2024/02/26 10:08:49;;;;;;;;;;;9.80;99.90;;;-146.41;100.00;57768.22;5035727;28;1129;-67
2024/02/26 10:11:16;;;;;;;;;;;9.80;99.90;;;-146.41;100.00;57768.22;5033502;28;2477;-68
2024/02/26 10:13:43;;;;;;;;;;;9.90;99.90;;;-146.41;100.00;57768.22;5038163;28;1906;-68
2024/02/26 10:16:10;;;;;;;;;;;10.00;99.90;;;-146.41;100.00;57768.22;5028323;28;1402;-69
2024/02/26 10:18:47;;;;;;;;;;;10.10;99.90;;;-146.41;100.00;57768.22;5032652;28;1846;-66
2024/02/26 10:21:25;;;;;;;;;;;10.20;99.90;;;-146.41;100.00;57768.22;5031930;28;1462;-68
2024/02/26 10:23:52;;;;;;;;;;;10.20;99.90;;;-146.41;100.00;57768.22;5031133;28;3182;-68
2024/02/26 10:26:19;;;;;;;;;;;10.30;99.90;;;-146.41;100.00;57768.22;5033314;28;1074;-68
2024/02/26 10:28:46;;;;;;;;;;;10.30;99.90;;;-146.41;100.00;57768.22;5033008;28;2502;-67
2024/02/26 10:31:18;;;;;;;;;;;10.30;99.90;;;-146.41;100.00;57768.22;5040969;28;1383;-68
2024/02/26 10:33:45;;;;;;;;;;;10.40;99.90;;;-146.41;100.00;57768.22;5037841;28;1910;-68
2024/02/26 10:36:12;;;;;;;;;;;10.40;99.90;;;-146.41;100.00;57768.22;5036449;28;1107;-67
2024/02/26 10:38:39;;;;;;;;;;;10.40;99.90;;;-146.41;100.00;57768.22;5036054;28;1240;-68
2024/02/26 10:41:06;;;;;;;;;;;10.60;99.90;;;-146.41;100.00;57768.22;5038912;28;2196;-68
2024/02/26 10:43:33;;;;;;;;;;;10.60;99.90;;;-146.41;100.00;57768.22;5053512;28;2890;-68
2024/02/26 10:46:00;;;;;;;;;;;10.70;99.90;;;-146.41;100.00;57768.22;5035250;28;1447;-68
2024/02/26 10:48:27;;;;;;;;;;;10.70;99.90;;;-146.41;100.00;57768.22;5037369;28;1371;-68
2024/02/26 10:50:56;;;;;;;;;;;10.90;99.90;;;-146.41;100.00;57768.22;5037995;28;1265;-68
2024/02/26 10:53:23;;;;;;;;;;;11.20;99.90;;;-146.41;100.00;57768.22;5037623;28;1967;-68
2024/02/26 10:56:00;;;;;;;;;;;11.20;99.90;;;-146.41;100.00;57768.22;5035471;28;2140;-68
2024/02/26 10:58:28;;;;;;;;;;;11.30;99.90;;;-146.41;100.00;57768.22;5036526;28;1276;-68
2024/02/26 11:00:57;;;;;;;;;;;11.20;99.90;;;-146.41;100.00;57768.22;5035531;28;1399;-68
2024/02/26 11:03:25;;;;;;;;;;;11.50;99.90;;;-146.41;100.00;57768.22;5033144;28;1379;-68
2024/02/26 11:05:52;;;;;;;;;;;11.70;99.90;;;-146.41;100.00;57768.22;5054214;28;1664;-68
2024/02/26 11:08:24;;;;;;;;;;;11.90;99.90;;;-146.41;100.00;57768.22;5038944;28;1374;-68
2024/02/26 11:10:53;;;;;;;;;;;12.10;99.90;;;-146.41;100.00;57768.22;5036551;28;2482;-68